Terminal Aerodrome Forecast
Issued by NWS Wilmington, OH

Current Version | Previous Version | Graphics & Text | Print | Product List | Glossary On
Versions: 1 2 3 4 5 6 7 8 9 10 11 12 13 14 15 16 17 18 19 20 21 22 23 24 25 26 27
000
FTUS41 KILN 230500 RRA
TAFDAY
TAF
KDAY 230540Z 2306/2406 19008KT P6SM VCSH SCT050 OVC080
      TEMPO 2307/2309 5SM -SHRA BKN045 OVC080
     FM230900 17008KT P6SM OVC060
      TEMPO 2314/2317 -SHRA BKN020
     FM231700 15012KT P6SM VCSH BKN020 BKN040
     FM232300 13010G18KT 4SM -SHRA BR OVC012
     FM240300 16014G26KT 3SM -SHRA BR OVC009=

USA.gov is the U.S. government's official web portal to all federal, state and local government web resources and services.